createdAt,value
2024-01-26T00:02:08.602Z,95990.19
2024-01-26T00:04:35.568Z,95990.50
2024-01-26T00:07:02.686Z,95985.84
2024-01-26T00:09:29.742Z,95988.66
2024-01-26T00:11:56.516Z,95990.63
2024-01-26T00:14:23.242Z,95985.09
2024-01-26T00:16:50.068Z,95995.94
2024-01-26T00:19:16.919Z,95997.72
2024-01-26T00:21:43.534Z,95998.63
2024-01-26T00:24:10.664Z,96002.53
2024-01-26T00:26:37.398Z,96003.53
2024-01-26T00:29:04.515Z,96004.25
2024-01-26T00:31:31.207Z,95999.94
2024-01-26T00:33:58.020Z,96000.19
2024-01-26T00:36:25.281Z,95993.06
2024-01-26T00:38:51.950Z,95996.94
2024-01-26T00:41:19.092Z,95996.41
2024-01-26T00:43:45.694Z,95992.75
2024-01-26T00:46:13.003Z,95993.56
2024-01-26T00:48:42.163Z,95992.97
2024-01-26T00:51:09.270Z,95988.44
2024-01-26T00:53:35.892Z,95981.56
2024-01-26T00:56:02.772Z,95989.16
2024-01-26T00:58:32.408Z,95980.84
2024-01-26T01:00:59.152Z,95980.84
2024-01-26T01:03:26.153Z,95983.63
2024-01-26T01:05:53.066Z,95983.00
2024-01-26T01:08:19.811Z,95988.28
2024-01-26T01:10:46.556Z,95977.88
2024-01-26T01:13:13.388Z,95979.81
2024-01-26T01:15:41.511Z,95992.00
2024-01-26T01:18:08.826Z,95986.13
2024-01-26T01:20:36.447Z,95991.53
2024-01-26T01:23:06.130Z,95988.19
2024-01-26T01:25:35.657Z,95991.38
2024-01-26T01:28:02.486Z,95993.34
2024-01-26T01:30:29.208Z,95997.88
2024-01-26T01:32:56.201Z,96002.91
2024-01-26T01:35:22.979Z,95999.94
2024-01-26T01:37:49.752Z,96003.88
2024-01-26T01:40:16.680Z,96007.19
2024-01-26T01:42:43.680Z,96007.97
2024-01-26T01:45:14.977Z,96015.41
2024-01-26T01:47:43.063Z,96003.97
2024-01-26T01:50:10.373Z,96008.06
2024-01-26T01:52:48.627Z,96013.22
2024-01-26T01:55:17.001Z,96009.47
2024-01-26T01:57:46.108Z,96006.91
2024-01-26T02:00:19.631Z,96010.03
2024-01-26T02:02:48.750Z,96000.53
2024-01-26T02:05:16.620Z,95997.56
2024-01-26T02:07:49.869Z,95985.97
2024-01-26T02:10:16.855Z,95984.88
2024-01-26T02:12:43.949Z,95983.41
2024-01-26T02:15:11.648Z,95982.81
2024-01-26T02:17:40.747Z,95982.81
2024-01-26T02:20:08.683Z,95992.97
2024-01-26T02:22:35.572Z,95989.56
2024-01-26T02:25:02.415Z,96000.84
2024-01-26T02:27:29.554Z,95999.63
2024-01-26T02:29:56.374Z,96015.13
2024-01-26T02:32:23.221Z,96010.13
2024-01-26T02:34:50.287Z,96016.66
2024-01-26T02:37:17.646Z,96009.25
2024-01-26T02:39:44.522Z,95990.56
2024-01-26T02:42:11.301Z,95995.66
2024-01-26T02:44:38.053Z,95996.34
2024-01-26T02:47:05.031Z,95995.53
2024-01-26T02:49:33.147Z,95991.00
2024-01-26T02:52:00.096Z,95992.13
2024-01-26T02:54:26.847Z,95993.28
2024-01-26T02:56:53.632Z,95999.03
2024-01-26T02:59:21.976Z,95991.53
2024-01-26T03:01:48.910Z,95993.28
2024-01-26T03:04:16.137Z,95994.31
2024-01-26T03:06:43.552Z,96003.41
2024-01-26T03:09:10.453Z,95999.78
2024-01-26T03:11:39.665Z,96009.22
2024-01-26T03:14:07.768Z,95999.84
2024-01-26T03:16:41.706Z,95999.56
2024-01-26T03:19:09.080Z,96005.31
2024-01-26T03:21:46.862Z,96016.25
2024-01-26T03:24:14.098Z,96013.09
2024-01-26T03:26:41.417Z,96025.31
2024-01-26T03:29:08.284Z,96024.63
2024-01-26T03:31:35.460Z,96027.28
2024-01-26T03:34:03.121Z,96037.66
2024-01-26T03:36:30.136Z,96047.31
2024-01-26T03:38:56.817Z,96045.47
2024-01-26T03:41:23.771Z,96041.47
2024-01-26T03:43:53.844Z,96047.63
2024-01-26T03:46:21.909Z,96042.78
2024-01-26T03:48:49.866Z,96047.38
2024-01-26T03:51:17.032Z,96049.88
2024-01-26T03:53:43.898Z,96054.56
2024-01-26T03:56:10.831Z,96048.34
2024-01-26T03:58:37.426Z,96062.38
2024-01-26T04:01:04.411Z,96059.94
2024-01-26T04:03:31.500Z,96056.56
2024-01-26T04:05:58.357Z,96056.88
2024-01-26T04:08:25.481Z,96057.47
2024-01-26T04:10:52.295Z,96055.97
2024-01-26T04:13:19.079Z,96057.94
2024-01-26T04:15:48.169Z,96050.22
2024-01-26T04:18:15.421Z,96051.16
2024-01-26T04:20:42.538Z,96066.34
2024-01-26T04:23:09.356Z,96067.22
2024-01-26T04:25:36.363Z,96067.75
2024-01-26T04:28:03.053Z,96069.50
2024-01-26T04:30:29.821Z,96069.19
2024-01-26T04:32:57.040Z,96071.16
2024-01-26T04:35:24.158Z,96068.81
2024-01-26T04:37:51.094Z,96082.81
2024-01-26T04:40:17.860Z,96080.91
2024-01-26T04:42:44.751Z,96085.00
2024-01-26T04:45:11.964Z,96080.25
2024-01-26T04:47:38.794Z,96077.31
2024-01-26T04:50:06.061Z,96079.69
2024-01-26T04:52:33.098Z,96077.25
2024-01-26T04:54:59.874Z,96079.56
2024-01-26T04:57:27.266Z,96084.00
2024-01-26T04:59:53.914Z,96081.31
2024-01-26T05:02:21.077Z,96080.94
2024-01-26T05:04:47.707Z,96086.75
2024-01-26T05:07:16.260Z,96088.00
2024-01-26T05:09:45.987Z,96095.41
2024-01-26T05:12:14.390Z,96096.72
2024-01-26T05:14:41.464Z,96095.22
2024-01-26T05:17:08.304Z,96089.38
2024-01-26T05:19:35.195Z,96096.19
2024-01-26T05:22:02.127Z,96088.41
2024-01-26T05:24:28.748Z,96098.53
2024-01-26T05:26:56.834Z,96101.09
2024-01-26T05:29:27.045Z,96095.66
2024-01-26T05:31:56.674Z,96104.22
2024-01-26T05:34:23.774Z,96097.81
2024-01-26T05:36:51.161Z,96096.78
2024-01-26T05:39:17.848Z,96099.47
2024-01-26T05:41:45.221Z,96101.34
2024-01-26T05:44:11.851Z,96100.66
2024-01-26T05:46:38.800Z,96098.16
2024-01-26T05:49:08.330Z,96101.44
2024-01-26T05:51:37.178Z,96104.84
2024-01-26T05:54:04.193Z,96098.28
2024-01-26T05:56:31.344Z,96103.59
2024-01-26T05:58:58.125Z,96097.44
2024-01-26T06:01:24.907Z,96083.88
2024-01-26T06:03:51.676Z,96090.88
2024-01-26T06:06:18.978Z,96092.13
2024-01-26T06:08:45.889Z,96085.66
2024-01-26T06:11:12.833Z,96086.97
2024-01-26T06:13:40.836Z,96080.59
2024-01-26T06:16:08.229Z,96081.97
2024-01-26T06:18:36.750Z,96091.81
2024-01-26T06:21:03.995Z,96084.22
2024-01-26T06:23:30.834Z,96083.94
2024-01-26T06:25:57.827Z,96081.34
2024-01-26T06:28:24.426Z,96084.66
2024-01-26T06:30:51.181Z,96084.53
2024-01-26T06:33:18.167Z,96089.38
2024-01-26T06:35:45.483Z,96078.44
2024-01-26T06:38:12.959Z,96086.03
2024-01-26T06:40:40.576Z,96078.66
2024-01-26T06:43:07.799Z,96083.88
2024-01-26T06:45:34.999Z,96086.75
2024-01-26T06:48:02.340Z,96080.53
2024-01-26T06:50:29.296Z,96078.44
2024-01-26T06:52:55.916Z,96082.75
2024-01-26T06:55:22.646Z,96075.94
2024-01-26T06:57:49.530Z,96069.91
2024-01-26T07:00:17.950Z,96063.94
2024-01-26T07:02:44.901Z,96065.66
2024-01-26T07:05:12.048Z,96057.59
2024-01-26T07:07:38.815Z,96062.59
2024-01-26T07:10:06.606Z,96059.22
2024-01-26T07:12:33.454Z,96056.34
2024-01-26T07:15:00.369Z,96052.81
2024-01-26T07:17:27.164Z,96055.78
2024-01-26T07:19:53.883Z,96065.56
2024-01-26T07:22:20.528Z,96064.03
2024-01-26T07:24:47.152Z,96060.88
2024-01-26T07:27:14.098Z,96065.25
2024-01-26T07:29:40.754Z,96074.06
2024-01-26T07:32:07.472Z,96082.81
2024-01-26T07:34:34.536Z,96079.63
2024-01-26T07:37:01.217Z,96073.00
2024-01-26T07:39:28.665Z,96073.25
2024-01-26T07:41:55.498Z,96081.72
2024-01-26T07:44:22.300Z,96069.78
2024-01-26T07:46:49.077Z,96070.19
2024-01-26T07:49:15.795Z,96073.16
2024-01-26T07:51:42.628Z,96066.22
2024-01-26T07:54:15.431Z,96074.53
2024-01-26T07:56:42.334Z,96066.41
2024-01-26T07:59:09.164Z,96053.88
2024-01-26T08:01:35.941Z,96048.63
2024-01-26T08:04:02.854Z,96041.28
2024-01-26T08:06:30.463Z,96048.91
2024-01-26T08:08:57.534Z,96035.56
2024-01-26T08:11:24.804Z,96045.22
2024-01-26T08:13:51.642Z,96039.72
2024-01-26T08:16:18.691Z,96042.09
2024-01-26T08:18:45.677Z,96044.44
2024-01-26T08:21:12.634Z,96046.91
2024-01-26T08:23:39.603Z,96050.19
2024-01-26T08:26:07.996Z,96048.72
2024-01-26T08:28:34.630Z,96049.13
2024-01-26T08:31:01.275Z,96047.25
2024-01-26T08:33:28.150Z,96031.56
2024-01-26T08:35:55.357Z,96039.41
2024-01-26T08:38:22.190Z,96034.84
2024-01-26T08:40:48.845Z,96027.34
2024-01-26T08:43:15.649Z,96022.06
2024-01-26T08:45:42.694Z,96026.41
2024-01-26T08:48:09.364Z,96016.09
2024-01-26T08:50:37.891Z,96016.56
2024-01-26T08:53:04.874Z,96017.81
2024-01-26T08:55:31.610Z,96012.56
2024-01-26T08:57:58.372Z,96005.25
2024-01-26T09:00:25.203Z,96014.28
2024-01-26T09:02:52.007Z,95999.50
2024-01-26T09:05:19.159Z,95995.34
2024-01-26T09:07:45.893Z,95994.44
2024-01-26T09:10:18.413Z,95994.56
2024-01-26T09:12:46.589Z,95992.00
2024-01-26T09:15:13.353Z,95983.03
2024-01-26T09:17:40.301Z,95993.78
2024-01-26T09:20:07.872Z,95983.50
2024-01-26T09:22:34.626Z,95994.31
2024-01-26T09:25:01.281Z,95989.03
2024-01-26T09:27:29.542Z,95987.41
2024-01-26T09:29:56.340Z,96014.06
2024-01-26T09:32:23.006Z,96000.72
2024-01-26T09:34:49.810Z,95989.91
2024-01-26T09:37:16.650Z,95993.91
2024-01-26T09:39:43.921Z,95988.78
2024-01-26T09:42:10.857Z,95988.34
2024-01-26T09:44:37.548Z,95990.16
2024-01-26T09:47:08.654Z,95994.19
2024-01-26T09:49:36.696Z,95999.16
2024-01-26T09:52:04.277Z,95991.97
2024-01-26T09:54:31.427Z,95998.19
2024-01-26T09:56:58.542Z,95994.03
2024-01-26T09:59:25.417Z,95983.75
2024-01-26T10:01:52.347Z,95991.72
2024-01-26T10:04:19.613Z,95987.47
2024-01-26T10:06:47.496Z,95983.38
2024-01-26T10:09:15.584Z,95982.72
2024-01-26T10:11:42.451Z,95976.00
2024-01-26T10:14:09.357Z,95978.94
2024-01-26T10:16:35.982Z,95967.13
2024-01-26T10:19:02.921Z,95962.84
2024-01-26T10:21:29.792Z,95957.88
2024-01-26T10:23:56.636Z,95935.91
2024-01-26T10:26:23.673Z,95947.47
2024-01-26T10:28:51.436Z,95944.69
2024-01-26T10:31:18.193Z,95937.88
2024-01-26T10:33:46.488Z,95932.81
2024-01-26T10:36:15.381Z,95929.16
2024-01-26T10:38:44.136Z,95927.41
2024-01-26T10:41:18.456Z,95911.75
2024-01-26T10:43:46.454Z,95911.22
2024-01-26T10:46:14.160Z,95902.13
2024-01-26T10:48:41.719Z,95904.59
2024-01-26T10:51:10.243Z,95900.25
2024-01-26T10:53:37.760Z,95889.47
2024-01-26T10:56:06.072Z,95885.81
2024-01-26T10:58:32.827Z,95879.28
2024-01-26T11:01:00.040Z,95871.09
2024-01-26T11:03:27.070Z,95860.66
2024-01-26T11:05:54.610Z,95857.91
2024-01-26T11:08:26.149Z,95850.59
2024-01-26T11:10:56.733Z,95851.75
2024-01-26T11:13:24.688Z,95849.84
2024-01-26T11:15:52.210Z,95846.56
2024-01-26T11:18:26.314Z,95839.19
2024-01-26T11:20:53.547Z,95837.50
2024-01-26T11:23:20.994Z,95841.66
2024-01-26T11:25:52.551Z,95843.88
2024-01-26T11:28:26.775Z,95839.06
2024-01-26T11:30:55.287Z,95839.41
2024-01-26T11:33:23.229Z,95838.97
2024-01-26T11:35:51.833Z,95834.63
2024-01-26T11:38:20.048Z,95832.56
2024-01-26T11:40:46.971Z,95836.28
2024-01-26T11:43:14.861Z,95840.63
2024-01-26T11:45:46.481Z,95837.75
2024-01-26T11:48:13.994Z,95833.41
2024-01-26T11:50:44.974Z,95826.63
2024-01-26T11:53:14.528Z,95829.31
2024-01-26T11:55:43.196Z,95827.84
2024-01-26T11:58:10.946Z,95821.31
2024-01-26T12:00:38.015Z,95810.00
2024-01-26T12:03:10.039Z,95815.31
2024-01-26T12:05:38.481Z,95819.41
2024-01-26T12:08:07.572Z,95814.63
2024-01-26T12:10:36.317Z,95813.25
2024-01-26T12:13:04.753Z,95809.06
2024-01-26T12:15:41.394Z,95808.09
2024-01-26T12:18:12.515Z,95805.94
2024-01-26T12:20:40.143Z,95807.16
2024-01-26T12:23:16.364Z,95810.03
2024-01-26T12:25:43.154Z,95811.25
2024-01-26T12:28:10.000Z,95809.34
2024-01-26T12:30:36.765Z,95799.13
2024-01-26T12:33:10.856Z,95789.59
2024-01-26T12:35:41.535Z,95795.06
2024-01-26T12:38:09.163Z,95795.06
2024-01-26T12:40:36.005Z,95779.41
2024-01-26T12:43:04.074Z,95782.00
2024-01-26T12:45:30.774Z,95777.38
2024-01-26T12:47:57.438Z,95774.38
2024-01-26T12:50:25.772Z,95776.53
2024-01-26T12:52:52.853Z,95771.38
2024-01-26T12:55:19.539Z,95780.78
2024-01-26T12:57:46.446Z,95779.94
2024-01-26T13:00:14.324Z,95765.09
2024-01-26T13:02:41.333Z,95771.78
2024-01-26T13:05:10.071Z,95778.16
2024-01-26T13:07:36.901Z,95762.66
2024-01-26T13:10:05.056Z,95775.00
2024-01-26T13:12:31.704Z,95762.09
2024-01-26T13:14:58.421Z,95770.94
2024-01-26T13:17:27.118Z,95764.72
2024-01-26T13:20:01.155Z,95759.53
2024-01-26T13:22:37.170Z,95753.75
2024-01-26T13:25:04.772Z,95761.50
2024-01-26T13:27:31.525Z,95763.78
2024-01-26T13:29:58.509Z,95768.94
2024-01-26T13:32:25.994Z,95768.94
2024-01-26T13:34:52.926Z,95762.75
2024-01-26T13:37:20.300Z,95773.31
2024-01-26T13:39:47.029Z,95774.75
2024-01-26T13:42:14.238Z,95777.63
2024-01-26T13:44:43.218Z,95781.94
2024-01-26T13:47:10.344Z,95782.03
2024-01-26T13:49:37.413Z,95781.53
2024-01-26T13:52:04.363Z,95778.09
2024-01-26T13:54:31.137Z,95778.59
2024-01-26T13:57:01.730Z,95787.31
2024-01-26T13:59:28.644Z,95781.88
2024-01-26T14:01:55.268Z,95785.72
2024-01-26T14:04:22.170Z,95786.94
2024-01-26T14:06:49.499Z,95792.03
2024-01-26T14:09:16.620Z,95783.06
2024-01-26T14:11:43.453Z,95787.09
2024-01-26T14:14:10.417Z,95798.72
2024-01-26T14:16:39.262Z,95799.78
2024-01-26T14:19:08.205Z,95796.31
2024-01-26T14:21:35.970Z,95799.59
2024-01-26T14:24:04.150Z,95794.53
2024-01-26T14:26:31.677Z,95797.00
2024-01-26T14:28:58.408Z,95791.97
2024-01-26T14:31:25.162Z,95794.34
2024-01-26T14:33:52.259Z,95794.75
2024-01-26T14:36:21.344Z,95795.53
2024-01-26T14:38:48.121Z,95790.72
2024-01-26T14:41:14.997Z,95793.47
2024-01-26T14:43:41.688Z,95795.75
2024-01-26T14:46:09.731Z,95781.47
2024-01-26T14:48:39.994Z,95788.19
2024-01-26T14:51:09.607Z,95786.88
2024-01-26T14:53:36.569Z,95784.00
2024-01-26T14:56:06.647Z,95791.13
2024-01-26T14:58:33.473Z,95798.44
2024-01-26T15:01:00.211Z,95804.44
2024-01-26T15:03:27.384Z,95803.56
2024-01-26T15:05:54.167Z,95808.84
2024-01-26T15:08:20.884Z,95813.16
2024-01-26T15:10:48.221Z,95810.09
2024-01-26T15:13:15.031Z,95805.56
2024-01-26T15:15:41.944Z,95808.88
2024-01-26T15:18:09.615Z,95813.06
2024-01-26T15:20:36.503Z,95811.22
2024-01-26T15:23:06.637Z,95814.88
2024-01-26T15:25:33.670Z,95817.56
2024-01-26T15:28:00.257Z,95813.84
2024-01-26T15:30:27.391Z,95824.16
2024-01-26T15:32:54.456Z,95827.63
2024-01-26T15:35:21.141Z,95813.47
2024-01-26T15:37:47.795Z,95827.66
2024-01-26T15:40:18.287Z,95829.63
2024-01-26T15:42:45.194Z,95838.28
2024-01-26T15:45:12.246Z,95833.00
2024-01-26T15:47:42.068Z,95839.00
2024-01-26T15:50:09.550Z,95844.00
2024-01-26T15:52:44.985Z,95842.63
2024-01-26T15:55:13.432Z,95850.06
2024-01-26T15:57:40.371Z,95851.34
2024-01-26T16:00:08.968Z,95850.91
2024-01-26T16:02:35.851Z,95849.38
2024-01-26T16:05:03.892Z,95854.06
2024-01-26T16:07:30.731Z,95850.91
2024-01-26T16:09:58.085Z,95849.38
2024-01-26T16:12:25.305Z,95855.22
2024-01-26T16:14:52.299Z,95851.56
2024-01-26T16:17:19.425Z,95859.78
2024-01-26T16:19:46.925Z,95859.97
2024-01-26T16:22:14.027Z,95865.38
2024-01-26T16:24:40.811Z,95872.75
2024-01-26T16:27:07.821Z,95865.38
2024-01-26T16:29:34.453Z,95858.13
2024-01-26T16:32:01.084Z,95875.78
2024-01-26T16:34:27.841Z,95872.75
2024-01-26T16:36:54.429Z,95875.34
2024-01-26T16:39:29.291Z,95881.06
2024-01-26T16:41:58.874Z,95878.50
2024-01-26T16:44:26.213Z,95873.94
2024-01-26T16:46:52.823Z,95901.50
2024-01-26T16:49:19.560Z,95893.34
2024-01-26T16:51:46.520Z,95891.22
2024-01-26T16:54:13.281Z,95894.50
2024-01-26T16:56:40.527Z,95898.59
2024-01-26T16:59:07.630Z,95895.53
2024-01-26T17:01:35.061Z,95892.97
2024-01-26T17:04:02.246Z,95892.66
2024-01-26T17:06:29.284Z,95898.06
2024-01-26T17:08:56.776Z,95912.19
2024-01-26T17:11:23.541Z,95911.38
2024-01-26T17:13:50.331Z,95916.53
2024-01-26T17:16:17.405Z,95924.00
2024-01-26T17:18:46.336Z,95925.75
2024-01-26T17:21:13.375Z,95930.34
2024-01-26T17:23:42.072Z,95942.63
2024-01-26T17:26:08.932Z,95950.56
2024-01-26T17:28:35.786Z,95944.97
2024-01-26T17:31:02.850Z,95952.34
2024-01-26T17:33:30.147Z,95954.44
2024-01-26T17:35:57.117Z,95960.63
2024-01-26T17:38:25.579Z,95975.03
2024-01-26T17:40:52.398Z,95972.09
2024-01-26T17:43:19.236Z,95979.59
2024-01-26T17:45:47.441Z,95979.94
2024-01-26T17:48:15.403Z,95992.00
2024-01-26T17:50:42.449Z,95997.03
2024-01-26T17:53:09.192Z,95994.72
2024-01-26T17:55:39.130Z,95997.88
2024-01-26T17:58:07.671Z,96005.91
2024-01-26T18:00:35.537Z,96023.50
2024-01-26T18:03:02.376Z,96014.34
2024-01-26T18:05:29.643Z,96030.06
2024-01-26T18:07:56.264Z,96044.22
2024-01-26T18:10:24.076Z,96043.63
2024-01-26T18:12:51.045Z,96057.44
2024-01-26T18:15:17.848Z,96063.28
2024-01-26T18:17:44.787Z,96076.41
2024-01-26T18:20:12.331Z,96069.97
2024-01-26T18:22:40.545Z,96081.56
2024-01-26T18:25:08.490Z,96090.44
2024-01-26T18:27:35.858Z,96108.47
2024-01-26T18:30:02.778Z,96123.06
2024-01-26T18:32:29.831Z,96117.22
2024-01-26T18:34:57.416Z,96128.56
2024-01-26T18:37:24.362Z,96123.31
2024-01-26T18:39:51.333Z,96124.47
2024-01-26T18:42:18.160Z,96145.25
2024-01-26T18:44:45.000Z,96153.06
2024-01-26T18:47:12.116Z,96147.56
2024-01-26T18:49:41.424Z,96153.09
2024-01-26T18:52:08.705Z,96160.66
2024-01-26T18:54:36.623Z,96158.75
2024-01-26T18:57:03.900Z,96165.97
2024-01-26T18:59:31.338Z,96163.97
2024-01-26T19:02:00.779Z,96177.31
2024-01-26T19:04:27.803Z,96181.50
2024-01-26T19:06:54.843Z,96192.81
2024-01-26T19:09:21.698Z,96202.69
2024-01-26T19:11:48.541Z,96203.75
2024-01-26T19:14:15.514Z,96217.38
2024-01-26T19:16:42.649Z,96224.38
2024-01-26T19:19:09.772Z,96240.53
2024-01-26T19:21:36.608Z,96231.84
2024-01-26T19:24:03.387Z,96238.41
2024-01-26T19:26:30.557Z,96246.16
2024-01-26T19:28:57.243Z,96256.81
2024-01-26T19:31:24.234Z,96254.47
2024-01-26T19:33:51.165Z,96263.81
2024-01-26T19:36:18.678Z,96274.50
2024-01-26T19:38:45.844Z,96281.91
2024-01-26T19:41:13.069Z,96285.81
2024-01-26T19:43:40.086Z,96297.53
2024-01-26T19:46:07.471Z,96295.38
2024-01-26T19:48:34.384Z,96307.63
2024-01-26T19:51:04.434Z,96309.56
2024-01-26T19:53:31.203Z,96303.78
2024-01-26T19:55:58.170Z,96307.88
2024-01-26T19:58:24.744Z,96318.97
2024-01-26T20:00:51.390Z,96327.06
2024-01-26T20:03:18.279Z,96331.59
2024-01-26T20:05:45.274Z,96335.34
2024-01-26T20:08:12.105Z,96346.00
2024-01-26T20:10:40.528Z,96346.88
2024-01-26T20:13:07.981Z,96353.81
2024-01-26T20:15:35.021Z,96356.75
2024-01-26T20:18:01.845Z,96358.16
2024-01-26T20:20:29.041Z,96371.09
2024-01-26T20:22:56.861Z,96373.56
2024-01-26T20:25:24.620Z,96373.66
2024-01-26T20:27:52.032Z,96378.78
2024-01-26T20:32:51.041Z,96386.44
2024-01-26T20:35:18.463Z,96392.63
2024-01-26T20:37:45.176Z,96399.09
2024-01-26T20:40:12.185Z,96410.63
2024-01-26T20:42:38.853Z,96413.09
2024-01-26T20:45:06.095Z,96426.69
2024-01-26T20:47:32.841Z,96418.22
2024-01-26T20:49:59.453Z,96418.41
2024-01-26T20:52:28.996Z,96418.94
2024-01-26T20:54:56.089Z,96415.75
2024-01-26T20:57:22.986Z,96413.94
2024-01-26T20:59:49.694Z,96416.97
2024-01-26T21:02:16.584Z,96419.41
2024-01-26T21:04:43.469Z,96421.69
2024-01-26T21:07:10.287Z,96425.19
2024-01-26T21:09:40.244Z,96425.91
2024-01-26T21:12:07.224Z,96437.81
2024-01-26T21:14:33.930Z,96432.75
2024-01-26T21:17:02.578Z,96437.28
2024-01-26T21:19:29.713Z,96429.38
2024-01-26T21:21:57.180Z,96441.03
2024-01-26T21:24:24.120Z,96439.56
2024-01-26T21:26:51.292Z,96441.69
2024-01-26T21:29:17.952Z,96446.56
2024-01-26T21:31:51.604Z,96447.63
2024-01-26T21:34:18.598Z,96450.84
2024-01-26T21:36:45.712Z,96452.41
2024-01-26T21:39:13.253Z,96464.06
2024-01-26T21:41:40.387Z,96466.53
2024-01-26T21:44:10.676Z,96460.91
2024-01-26T21:46:37.469Z,96462.25
2024-01-26T21:49:04.675Z,96465.84
2024-01-26T21:51:42.845Z,96471.44
2024-01-26T21:54:19.499Z,96467.88
2024-01-26T21:56:46.718Z,96475.84
2024-01-26T21:59:14.160Z,96478.53
2024-01-26T22:01:42.129Z,96476.53
2024-01-26T22:04:08.937Z,96459.13
2024-01-26T22:06:36.867Z,96477.22
2024-01-26T22:09:04.320Z,96473.34
2024-01-26T22:11:31.909Z,96477.41
2024-01-26T22:14:00.983Z,96475.13
2024-01-26T22:16:28.125Z,96478.16
2024-01-26T22:18:55.169Z,96475.72
2024-01-26T22:21:23.913Z,96486.47
2024-01-26T22:23:53.790Z,96496.31
2024-01-26T22:26:25.111Z,96488.56
2024-01-26T22:28:55.686Z,96486.84
2024-01-26T22:31:22.801Z,96486.16
2024-01-26T22:33:50.037Z,96485.41
2024-01-26T22:36:17.088Z,96494.31
2024-01-26T22:38:43.957Z,96515.72
2024-01-26T22:41:10.807Z,96518.53
2024-01-26T22:43:38.042Z,96517.03
2024-01-26T22:46:05.285Z,96518.94
2024-01-26T22:48:33.493Z,96514.00
2024-01-26T22:51:00.657Z,96515.56
2024-01-26T22:53:27.441Z,96516.38
2024-01-26T22:55:54.198Z,96503.41
2024-01-26T22:58:21.558Z,96506.38
2024-01-26T23:00:48.233Z,96503.91
2024-01-26T23:03:15.209Z,96505.03
2024-01-26T23:05:42.067Z,96504.47
2024-01-26T23:08:08.797Z,96515.34
2024-01-26T23:10:35.579Z,96497.31
2024-01-26T23:13:02.355Z,96501.78
2024-01-26T23:15:29.579Z,96505.44
2024-01-26T23:17:56.945Z,96502.22
2024-01-26T23:20:24.071Z,96504.91
2024-01-26T23:22:51.181Z,96508.81
2024-01-26T23:25:18.281Z,96509.25
2024-01-26T23:27:45.310Z,96508.28
2024-01-26T23:30:12.294Z,96504.91
2024-01-26T23:32:44.830Z,96515.53
2024-01-26T23:35:12.790Z,96523.72
2024-01-26T23:37:39.684Z,96530.22
2024-01-26T23:40:07.278Z,96530.13
2024-01-26T23:42:34.352Z,96531.22
2024-01-26T23:45:01.988Z,96531.06
2024-01-26T23:47:29.404Z,96534.09
2024-01-26T23:49:56.708Z,96535.47
2024-01-26T23:52:23.790Z,96539.44
2024-01-26T23:54:50.570Z,96532.78
2024-01-26T23:57:17.323Z,96533.53
2024-01-26T23:59:44.324Z,96522.28
